Terminal Aerodrome Forecast
Issued by NWS Sioux Falls, SD

Home | Current Version | Previous Version | Graphics & Text | Print | Product List | Glossary Off
Versions: 1 2 3 4 5 6 7 8 9 10 11 12 13 14 15 16 17 18 19 20 21 22 23 24 25

000
FTUS43 KFSD 152120 AAB
TAFHON
TAF AMD
KHON 152120Z 1521/1618 35023G32KT 1SM -SN BR OVC012
      TEMPO 1521/1524 1/4SM +SN VV008
     FM160000 35019G25KT 3SM -SN OVC015
     FM160200 34015KT P6SM OVC015
     FM161400 34010KT P6SM OVC015=

USA.gov is the U.S. government's official web portal to all federal, state and local government web resources and services.